LFOA

Avord (BA 702) Air Base

Airport
ICAO code
LFOA
Summary
ICAO Region
EUR
ICAO Territory
Location

, Centre

Serving
Avord
Elevation
580 ft
Coordinates
47° 3' 12" N , 2° 37' 57" E
Metar
Observation
LFOA 030300Z AUTO 06009KT 9999 BKN009 OVC019 03/03 Q1013 TEMPO 1000 -SN BKN004
Station
Avord
Date/Time
2022-12-03 03:00:00
Wind direction
60°
Wind speed
09 kts
Lowest cloud amount
broken clouds
Temperature
3°C
Dew point
3°C
Humidity
100%
QNH
1013 hPa
Weather condition
n/a

Runways

Designator Length Width Surface Rops
6/24 3503 45 ASP No/No

Airport map

Aerial View

SKYbrary Partners:

Safety knowledge contributed by: